Time;durP1;ratioP1;P1;durP2;ratioP2;P2;SDS_P1;SDS_P2;PMS_P1;PMS_P2;Temp;Humidity;BMP_temperature;BMP_pressure;BME280_temperature;BME280_humidity;BME280_pressure;Samples;Min_cycle;Max_cycle;Signal;HPM_P1;HPM_P2
2022/04/23 00:02:21;;;;;;;21.97;16.07;;;;;;;-143.37;100.00;62585.38;5067420;28;20944;-76
2022/04/23 00:04:57;;;;;;;14.57;13.07;;;;;;;-143.37;100.00;62585.38;5056965;28;20452;-76
2022/04/23 00:07:33;;;;;;;15.93;13.70;;;;;;;-143.37;100.00;62585.38;5060348;28;20451;-76
2022/04/23 00:10:10;;;;;;;16.13;13.17;;;;;;;-143.37;100.00;62585.38;5063025;28;20440;-76
2022/04/23 00:12:48;;;;;;;18.17;13.87;;;;;;;-143.37;100.00;62585.38;5071576;28;20432;-73
2022/04/23 00:15:25;;;;;;;14.93;12.77;;;;;;;-143.37;100.00;62585.38;5087065;28;20789;-76
2022/04/23 00:18:01;;;;;;;14.47;12.77;;;;;;;-143.37;100.00;62585.38;5070509;28;20553;-75
2022/04/23 00:20:39;;;;;;;16.33;14.10;;;;;;;-143.37;100.00;62585.38;5051429;28;20452;-75
2022/04/23 00:23:19;;;;;;;15.27;12.40;;;;;;;-143.37;100.00;62585.38;5065587;28;20437;-74
2022/04/23 00:25:55;;;;;;;14.97;13.37;;;;;;;-143.37;100.00;62585.38;5075030;28;20476;-75
2022/04/23 00:28:31;;;;;;;15.80;13.10;;;;;;;-143.37;100.00;62585.38;5054750;28;20437;-74
2022/04/23 00:31:07;;;;;;;15.73;13.00;;;;;;;-143.37;100.00;62585.38;5057022;28;20448;-74
2022/04/23 00:33:42;;;;;;;13.20;11.80;;;;;;;-143.37;100.00;62585.38;5063166;28;20441;-75
2022/04/23 00:36:19;;;;;;;14.60;13.10;;;;;;;-143.37;100.00;62585.38;5055161;28;20804;-74
2022/04/23 00:38:56;;;;;;;12.80;11.33;;;;;;;-143.37;100.00;62585.38;5066605;28;20466;-74
2022/04/23 00:41:47;;;;;;;15.00;13.20;;;;;;;-143.37;100.00;62585.38;5073828;28;20476;-74
2022/04/23 00:44:23;;;;;;;13.97;12.50;;;;;;;-143.37;100.00;62585.38;5089418;28;20452;-75
2022/04/23 00:46:58;;;;;;;14.57;12.60;;;;;;;-143.37;100.00;62585.38;5065797;28;20440;-75
2022/04/23 00:49:34;;;;;;;14.80;13.20;;;;;;;-143.37;100.00;62585.38;5070582;28;20452;-74
2022/04/23 00:52:10;;;;;;;13.73;12.13;;;;;;;-143.37;100.00;62585.38;5054764;28;20437;-75
2022/04/23 00:54:48;;;;;;;13.97;11.43;;;;;;;-143.37;100.00;62585.38;5060819;28;20444;-74
2022/04/23 00:57:23;;;;;;;14.70;13.20;;;;;;;-143.37;100.00;62585.38;5053487;28;20533;-75
2022/04/23 00:59:59;;;;;;;14.33;12.47;;;;;;;-143.37;100.00;62585.38;5041650;28;20839;-75
2022/04/23 01:02:35;;;;;;;13.47;11.97;;;;;;;-143.37;100.00;62585.38;5070123;28;20931;-74
2022/04/23 01:05:12;;;;;;;17.00;13.20;;;;;;;-143.37;100.00;62585.38;5056898;28;20484;-75
2022/04/23 01:07:48;;;;;;;14.40;11.23;;;;;;;-143.37;100.00;62585.38;5052852;28;20490;-74
2022/04/23 01:10:25;;;;;;;13.30;11.90;;;;;;;-143.37;100.00;62585.38;5068442;28;20963;-74
2022/04/23 01:13:01;;;;;;;13.70;12.23;;;;;;;-143.37;100.00;62585.38;5072028;28;20826;-75
2022/04/23 01:15:36;;;;;;;16.07;13.73;;;;;;;-143.37;100.00;62585.38;5070030;28;20445;-75
2022/04/23 01:18:14;;;;;;;14.60;12.80;;;;;;;-143.37;100.00;62585.38;5065751;28;20474;-75
2022/04/23 01:20:51;;;;;;;15.53;13.83;;;;;;;-143.37;100.00;62585.38;5072435;28;20449;-75
2022/04/23 01:23:29;;;;;;;14.53;12.13;;;;;;;-143.37;100.00;62585.38;5068514;28;20473;-75
2022/04/23 01:26:04;;;;;;;14.07;11.47;;;;;;;-143.37;100.00;62585.38;5069564;28;20535;-75
2022/04/23 01:28:40;;;;;;;14.17;12.10;;;;;;;-143.37;100.00;62585.38;5068792;28;20441;-75
2022/04/23 01:31:18;;;;;;;13.57;12.10;;;;;;;-143.37;100.00;62585.38;5070221;28;20825;-75
2022/04/23 01:33:53;;;;;;;13.53;11.97;;;;;;;-143.37;100.00;62585.38;5053079;28;20452;-75
2022/04/23 01:36:30;;;;;;;15.10;12.53;;;;;;;-143.37;100.00;62585.38;5041935;28;20461;-75
2022/04/23 01:39:06;;;;;;;15.70;12.87;;;;;;;-143.37;100.00;62585.38;5071827;28;20552;-75
2022/04/23 01:41:42;;;;;;;14.23;11.80;;;;;;;-143.37;100.00;62585.38;5061219;28;20476;-75
2022/04/23 01:44:17;;;;;;;15.53;13.97;;;;;;;-143.37;100.00;62585.38;5052107;28;20782;-75
2022/04/23 01:46:53;;;;;;;13.93;12.17;;;;;;;-143.37;100.00;62585.38;5065416;28;20441;-75
2022/04/23 01:49:29;;;;;;;15.27;13.03;;;;;;;-143.37;100.00;62585.38;5071167;28;20543;-75
2022/04/23 01:52:06;;;;;;;15.33;13.30;;;;;;;-143.37;100.00;62585.38;5067280;28;20499;-75
2022/04/23 01:54:42;;;;;;;15.80;13.30;;;;;;;-143.37;100.00;62585.38;5066142;28;20457;-75
2022/04/23 01:57:19;;;;;;;15.53;13.83;;;;;;;-143.37;100.00;62585.38;5057383;28;20436;-74
2022/04/23 02:00:08;;;;;;;15.23;12.37;;;;;;;-143.37;100.00;62585.38;5092070;23;20497;-76
2022/04/23 02:02:47;;;;;;;15.67;13.50;;;;;;;-143.37;100.00;62585.38;5085635;28;20448;-75
2022/04/23 02:05:23;;;;;;;16.93;14.63;;;;;;;-143.37;100.00;62585.38;5088623;28;20443;-75
2022/04/23 02:08:02;;;;;;;15.90;13.47;;;;;;;-143.37;100.00;62585.38;5089691;28;20540;-74
2022/04/23 02:10:38;;;;;;;17.83;14.10;;;;;;;-143.37;100.00;62585.38;5084185;28;20961;-74
2022/04/23 02:13:14;;;;;;;17.33;13.50;;;;;;;-143.37;100.00;62585.38;5088228;28;20468;-74
2022/04/23 02:15:49;;;;;;;16.67;14.30;;;;;;;-143.37;100.00;62585.38;5077031;28;20539;-74
2022/04/23 02:18:26;;;;;;;16.27;13.43;;;;;;;-143.37;100.00;62585.38;5071493;28;20942;-74
2022/04/23 02:21:01;;;;;;;16.03;13.50;;;;;;;-143.37;100.00;62585.38;5075187;28;20437;-74
2022/04/23 02:23:38;;;;;;;17.80;14.60;;;;;;;-143.37;100.00;62585.38;5071299;28;20440;-76
2022/04/23 02:26:14;;;;;;;17.03;14.27;;;;;;;-143.37;100.00;62585.38;5104350;28;20447;-75
2022/04/23 02:28:50;;;;;;;17.63;14.60;;;;;;;-143.37;100.00;62585.38;5080873;28;20867;-76
2022/04/23 02:31:26;;;;;;;19.17;15.57;;;;;;;-143.37;100.00;62585.38;5091220;28;20461;-76
2022/04/23 02:34:02;;;;;;;18.57;16.00;;;;;;;-143.37;100.00;62585.38;5071914;28;20435;-76
2022/04/23 02:36:37;;;;;;;16.20;14.43;;;;;;;-143.37;100.00;62585.38;5095079;28;20885;-76
2022/04/23 02:39:14;;;;;;;16.97;15.17;;;;;;;-143.37;100.00;62585.38;5092325;28;20970;-76
2022/04/23 02:41:50;;;;;;;18.43;15.60;;;;;;;-143.37;100.00;62585.38;5108870;28;20493;-76
2022/04/23 02:44:26;;;;;;;17.80;15.23;;;;;;;-143.37;100.00;62585.38;5091035;28;20468;-76
2022/04/23 02:47:02;;;;;;;19.10;15.07;;;;;;;-143.37;100.00;62585.38;5082934;28;20433;-76
2022/04/23 02:49:37;;;;;;;18.30;16.00;;;;;;;-143.37;100.00;62585.38;5083621;28;20440;-76
2022/04/23 02:52:13;;;;;;;17.07;15.23;;;;;;;-143.37;100.00;62585.38;5069910;28;20447;-77
2022/04/23 02:54:50;;;;;;;19.90;16.30;;;;;;;-143.37;100.00;62585.38;5086849;28;20526;-76
2022/04/23 02:57:26;;;;;;;18.20;14.83;;;;;;;-143.37;100.00;62585.38;5095501;28;20457;-76
2022/04/23 03:00:04;;;;;;;19.07;15.83;;;;;;;-143.37;100.00;62585.38;5090720;28;20501;-76
2022/04/23 03:02:40;;;;;;;18.40;14.43;;;;;;;-143.37;100.00;62585.38;5088352;28;20456;-76
2022/04/23 03:05:18;;;;;;;18.60;15.03;;;;;;;-143.37;100.00;62585.38;5088722;28;20444;-76
2022/04/23 03:07:54;;;;;;;18.50;15.17;;;;;;;-143.37;100.00;62585.38;5103827;28;20494;-76
2022/04/23 03:10:31;;;;;;;19.90;16.40;;;;;;;-143.37;100.00;62585.38;5087155;28;20537;-76
2022/04/23 03:13:07;;;;;;;18.13;14.20;;;;;;;-143.37;100.00;62585.38;5087772;28;20478;-76
2022/04/23 03:15:44;;;;;;;18.13;14.90;;;;;;;-143.37;100.00;62585.38;5090216;28;20850;-75
2022/04/23 03:18:21;;;;;;;17.40;14.13;;;;;;;-143.37;100.00;62585.38;5087037;28;20447;-76
2022/04/23 03:21:02;;;;;;;19.17;16.13;;;;;;;-143.37;100.00;62585.38;5090448;28;20448;-76
2022/04/23 03:23:38;;;;;;;16.40;14.63;;;;;;;-143.37;100.00;62585.38;5075202;28;20447;-76
2022/04/23 03:26:15;;;;;;;19.87;16.97;;;;;;;-143.37;100.00;62585.38;5077447;28;20440;-76
2022/04/23 03:28:50;;;;;;;19.43;15.30;;;;;;;-143.37;100.00;62585.38;5087202;28;20429;-76
2022/04/23 03:31:26;;;;;;;19.37;15.20;;;;;;;-143.37;100.00;62585.38;5066844;28;20540;-76
2022/04/23 03:34:02;;;;;;;20.80;15.00;;;;;;;-143.37;100.00;62585.38;5088923;28;20432;-76
2022/04/23 03:36:39;;;;;;;20.30;16.50;;;;;;;-143.37;100.00;62585.38;5071119;28;20456;-76
2022/04/23 03:39:15;;;;;;;19.17;15.40;;;;;;;-143.37;100.00;62585.38;5084445;28;20456;-76
2022/04/23 03:41:52;;;;;;;19.20;14.37;;;;;;;-143.37;100.00;62585.38;5087081;28;20424;-76
2022/04/23 03:44:27;;;;;;;19.00;14.63;;;;;;;-143.37;100.00;62585.38;5090936;28;20462;-75
2022/04/23 03:47:04;;;;;;;16.80;14.17;;;;;;;-143.37;100.00;62585.38;5086536;28;20760;-76
2022/04/23 03:49:40;;;;;;;17.87;14.57;;;;;;;-143.37;100.00;62585.38;5061354;28;20904;-76
2022/04/23 03:52:18;;;;;;;18.23;14.60;;;;;;;-143.37;100.00;62585.38;5091055;28;20443;-76
2022/04/23 03:54:53;;;;;;;19.30;16.17;;;;;;;-143.37;100.00;62585.38;5085424;28;20449;-75
2022/04/23 03:57:31;;;;;;;16.77;13.13;;;;;;;-143.37;100.00;62585.38;5086418;28;20543;-76
2022/04/23 04:00:08;;;;;;;18.57;15.53;;;;;;;-143.37;100.00;62585.38;5068739;28;20472;-75
2022/04/23 04:02:44;;;;;;;17.60;15.17;;;;;;;-143.37;100.00;62585.38;5055269;28;20820;-76
2022/04/23 04:05:20;;;;;;;15.60;13.57;;;;;;;-143.37;100.00;62585.38;5049773;28;20860;-76
2022/04/23 04:07:55;;;;;;;18.17;15.33;;;;;;;-143.37;100.00;62585.38;5067050;28;20507;-76
2022/04/23 04:10:31;;;;;;;21.20;17.13;;;;;;;-143.37;100.00;62585.38;5065681;28;20542;-75
2022/04/23 04:13:09;;;;;;;20.00;16.07;;;;;;;-143.37;100.00;62585.38;5051606;28;20571;-76
2022/04/23 04:15:49;;;;;;;19.70;16.23;;;;;;;-143.37;100.00;62585.38;5064751;28;20476;-76
2022/04/23 04:18:25;;;;;;;16.50;14.70;;;;;;;-143.37;100.00;62585.38;5071047;28;20441;-76
2022/04/23 04:21:00;;;;;;;21.07;16.60;;;;;;;-143.37;100.00;62585.38;5067616;28;20535;-76
2022/04/23 04:23:36;;;;;;;18.97;16.37;;;;;;;-143.37;100.00;62585.38;5049713;28;20481;-76
2022/04/23 04:26:12;;;;;;;19.80;14.40;;;;;;;-143.37;100.00;62585.38;5048989;28;20452;-75
2022/04/23 04:28:48;;;;;;;17.80;14.30;;;;;;;-143.37;100.00;62585.38;5068186;28;20887;-76
2022/04/23 04:34:19;;;;;;;18.90;15.20;;;;;;;-143.37;100.00;62585.38;5064996;28;20437;-76
2022/04/23 04:37:04;;;;;;;20.70;16.10;;;;;;;-143.37;100.00;62585.38;5067459;28;20442;-76
2022/04/23 04:39:43;;;;;;;19.23;14.73;;;;;;;-143.37;100.00;62585.38;5051678;28;20467;-76
2022/04/23 04:42:21;;;;;;;17.40;14.53;;;;;;;-143.37;100.00;62585.38;5090842;28;20457;-76
2022/04/23 04:44:58;;;;;;;19.87;15.93;;;;;;;-143.37;100.00;62585.38;5070265;28;20930;-76
2022/04/23 04:47:34;;;;;;;15.80;14.00;;;;;;;-143.37;100.00;62585.38;5083718;28;20437;-75
2022/04/23 04:50:11;;;;;;;19.67;15.27;;;;;;;-143.37;100.00;62585.38;5070437;28;20451;-76
2022/04/23 04:52:47;;;;;;;18.67;15.50;;;;;;;-143.37;100.00;62585.38;5051752;28;20440;-76
2022/04/23 04:55:22;;;;;;;20.40;15.37;;;;;;;-143.37;100.00;62585.38;5070325;28;20524;-76
2022/04/23 04:57:58;;;;;;;18.57;14.20;;;;;;;-143.37;100.00;62585.38;5069247;28;20528;-76
2022/04/23 05:00:35;;;;;;;19.50;14.63;;;;;;;-143.37;100.00;62585.38;5066858;28;20860;-76
2022/04/23 05:03:11;;;;;;;17.73;15.07;;;;;;;-143.37;100.00;62585.38;5086939;28;20544;-76
2022/04/23 05:05:49;;;;;;;17.43;14.77;;;;;;;-143.37;100.00;62585.38;5056796;28;20444;-76
2022/04/23 05:08:25;;;;;;;19.10;14.77;;;;;;;-143.37;100.00;62585.38;5071357;28;20870;-76
2022/04/23 05:11:01;;;;;;;15.40;13.20;;;;;;;-143.37;100.00;62585.38;5067565;28;20535;-76
2022/04/23 05:13:36;;;;;;;17.50;13.90;;;;;;;-143.37;100.00;62585.38;5089418;28;20436;-76
2022/04/23 05:16:14;;;;;;;17.57;14.07;;;;;;;-143.37;100.00;62585.38;5068952;28;20510;-76
2022/04/23 05:18:50;;;;;;;18.73;14.70;;;;;;;-143.37;100.00;62585.38;5071462;28;20432;-77
2022/04/23 05:21:26;;;;;;;17.63;14.43;;;;;;;-143.37;100.00;62585.38;5054004;28;20634;-76
2022/04/23 05:24:02;;;;;;;17.57;14.47;;;;;;;-143.37;100.00;62585.38;5069177;28;20434;-76
2022/04/23 05:26:37;;;;;;;19.13;14.10;;;;;;;-143.37;100.00;62585.38;5055816;28;20445;-76
2022/04/23 05:29:13;;;;;;;16.93;14.03;;;;;;;-143.37;100.00;62585.38;5067997;28;20445;-76
2022/04/23 05:31:51;;;;;;;15.27;12.50;;;;;;;-143.37;100.00;62585.38;5067519;28;20506;-76
2022/04/23 05:34:28;;;;;;;15.30;13.40;;;;;;;-143.37;100.00;62585.38;5068879;28;20939;-76
2022/04/23 05:37:04;;;;;;;17.00;12.43;;;;;;;-143.37;100.00;62585.38;5067183;28;20888;-76
2022/04/23 05:39:40;;;;;;;16.40;13.07;;;;;;;-143.37;100.00;62585.38;5050786;28;20527;-76
2022/04/23 05:42:17;;;;;;;17.60;12.57;;;;;;;-143.37;100.00;62585.38;5085851;28;20811;-76
2022/04/23 05:44:53;;;;;;;15.83;12.60;;;;;;;-143.37;100.00;62585.38;5052615;28;20443;-75
2022/04/23 05:47:30;;;;;;;14.27;11.03;;;;;;;-143.37;100.00;62585.38;5069731;28;20829;-76
2022/04/23 05:50:08;;;;;;;15.30;12.80;;;;;;;-143.37;100.00;62585.38;5064571;28;20448;-75
2022/04/23 05:52:47;;;;;;;15.67;13.27;;;;;;;-143.37;100.00;62585.38;5066947;28;20433;-76
2022/04/23 05:55:23;;;;;;;12.30;11.00;;;;;;;-143.37;100.00;62585.38;5062387;28;20450;-76
2022/04/23 05:57:59;;;;;;;15.67;12.67;;;;;;;-143.37;100.00;62585.38;5070335;28;20440;-76
2022/04/23 06:00:34;;;;;;;15.33;12.10;;;;;;;-143.37;100.00;62585.38;5064784;28;20468;-76
2022/04/23 06:03:12;;;;;;;13.10;10.50;;;;;;;-143.37;100.00;62585.38;5072153;28;20445;-76
2022/04/23 06:05:47;;;;;;;16.17;12.33;;;;;;;-143.37;100.00;62585.38;5064705;28;20970;-76
2022/04/23 06:08:24;;;;;;;12.53;10.90;;;;;;;-143.37;100.00;62585.38;5077987;28;20450;-76
2022/04/23 06:11:00;;;;;;;13.50;10.83;;;;;;;-143.37;100.00;62585.38;5061205;28;20487;-76
2022/04/23 06:13:35;;;;;;;14.07;11.27;;;;;;;-143.37;100.00;62585.38;5063203;28;20440;-76
2022/04/23 06:16:14;;;;;;;16.90;12.17;;;;;;;-143.37;100.00;62585.38;5061456;28;20842;-76
2022/04/23 06:18:51;;;;;;;15.20;12.03;;;;;;;-143.37;100.00;62585.38;5049790;28;20790;-76
2022/04/23 06:21:26;;;;;;;13.37;10.83;;;;;;;-143.37;100.00;62585.38;5063063;28;20488;-76
2022/04/23 06:24:02;;;;;;;21.33;11.40;;;;;;;-143.37;100.00;62585.38;5060500;28;20564;-76
2022/04/23 06:26:38;;;;;;;13.73;11.67;;;;;;;-143.37;100.00;62585.38;5049588;28;20448;-76
2022/04/23 06:29:14;;;;;;;28.03;11.90;;;;;;;-143.37;100.00;62585.38;5067390;28;20970;-76
2022/04/23 06:31:50;;;;;;;16.50;11.50;;;;;;;-143.37;100.00;62585.38;5060369;28;20808;-76
2022/04/23 06:34:27;;;;;;;27.40;12.70;;;;;;;-143.37;100.00;62585.38;5050326;28;20449;-76
2022/04/23 06:37:04;;;;;;;16.90;10.70;;;;;;;-143.37;100.00;62585.38;5084380;28;20555;-76
2022/04/23 06:39:41;;;;;;;30.03;12.70;;;;;;;-143.37;100.00;62585.38;5079365;28;20563;-76
2022/04/23 06:42:18;;;;;;;16.67;10.47;;;;;;;-143.37;100.00;62585.38;5061888;28;21037;-76
2022/04/23 06:44:54;;;;;;;12.50;10.50;;;;;;;-143.37;100.00;62585.38;5080944;28;20429;-76
2022/04/23 06:47:30;;;;;;;13.73;11.33;;;;;;;-143.37;100.00;62585.38;5054277;28;20433;-76
2022/04/23 06:50:09;;;;;;;13.83;12.37;;;;;;;-143.37;100.00;62585.38;5047318;28;20464;-76
2022/04/23 06:52:47;;;;;;;21.33;12.23;;;;;;;-143.37;100.00;62585.38;5049119;28;20528;-76
2022/04/23 06:55:23;;;;;;;11.50;9.20;;;;;;;-143.37;100.00;62585.38;5067703;28;20809;-75
2022/04/23 06:57:58;;;;;;;13.17;10.80;;;;;;;-143.37;100.00;62585.38;5045729;28;20444;-76
2022/04/23 07:00:34;;;;;;;10.87;8.63;;;;;;;-143.37;100.00;62585.38;5060896;28;20571;-75
2022/04/23 07:03:11;;;;;;;30.23;12.00;;;;;;;-143.37;100.00;62585.38;5069663;28;20445;-76
2022/04/23 07:05:48;;;;;;;16.50;10.07;;;;;;;-143.37;100.00;62585.38;5066516;28;20445;-76
2022/04/23 07:08:24;;;;;;;11.83;10.43;;;;;;;-143.37;100.00;62585.38;5067737;28;20429;-76
2022/04/23 07:11:00;;;;;;;17.00;9.90;;;;;;;-143.37;100.00;62585.38;5073572;28;20442;-75
2022/04/23 07:13:36;;;;;;;12.43;10.40;;;;;;;-143.37;100.00;62585.38;5056893;28;20439;-76
2022/04/23 07:16:13;;;;;;;12.27;9.70;;;;;;;-143.37;100.00;62585.38;5068898;28;20444;-75
2022/04/23 07:18:52;;;;;;;11.97;9.90;;;;;;;-143.37;100.00;62585.38;5065083;28;20434;-76
2022/04/23 07:21:29;;;;;;;12.90;9.57;;;;;;;-143.37;100.00;62585.38;5066150;28;20827;-76
2022/04/23 07:24:08;;;;;;;11.33;9.30;;;;;;;-143.37;100.00;62585.38;5081315;28;21081;-76
2022/04/23 07:26:43;;;;;;;12.30;10.13;;;;;;;-143.37;100.00;62585.38;5065174;28;20690;-76
2022/04/23 07:29:19;;;;;;;10.83;9.30;;;;;;;-143.37;100.00;62585.38;5063072;28;20457;-76
2022/04/23 07:31:56;;;;;;;12.13;9.63;;;;;;;-143.37;100.00;62585.38;5045974;28;20455;-76
2022/04/23 07:37:29;;;;;;;18.67;10.73;;;;;;;-143.37;100.00;62585.38;5067928;28;20453;-76
2022/04/23 07:40:10;;;;;;;12.70;9.90;;;;;;;-143.37;100.00;62585.38;5067809;28;20457;-76
2022/04/23 07:42:46;;;;;;;11.80;9.40;;;;;;;-143.37;100.00;62585.38;5058268;28;20437;-76
2022/04/23 07:45:22;;;;;;;11.93;9.53;;;;;;;-143.37;100.00;62585.38;5061509;28;20432;-76
2022/04/23 07:47:58;;;;;;;10.80;9.67;;;;;;;-143.37;100.00;62585.38;5071461;28;20437;-76
2022/04/23 07:50:33;;;;;;;10.93;9.00;;;;;;;-143.37;100.00;62585.38;5055037;28;20539;-76
2022/04/23 07:53:11;;;;;;;11.77;9.60;;;;;;;-143.37;100.00;62585.38;5041686;28;20926;-76
2022/04/23 07:55:48;;;;;;;11.97;9.57;;;;;;;-143.37;100.00;62585.38;5049652;28;20452;-76
2022/04/23 07:58:33;;;;;;;15.23;10.00;;;;;;;-143.37;100.00;62585.38;5086255;28;20436;-76
2022/04/23 08:01:09;;;;;;;10.80;9.60;;;;;;;-143.37;100.00;62585.38;5083294;28;20472;-76
2022/04/23 08:03:47;;;;;;;10.57;9.47;;;;;;;-143.37;100.00;62585.38;5052446;28;20985;-76
2022/04/23 08:06:23;;;;;;;11.60;9.50;;;;;;;-143.37;100.00;62585.38;5063299;28;20449;-76
2022/04/23 08:09:00;;;;;;;12.17;9.20;;;;;;;-143.37;100.00;62585.38;5082189;28;20446;-76
2022/04/23 08:11:36;;;;;;;10.63;9.20;;;;;;;-143.37;100.00;62585.38;5085010;28;20800;-76
2022/04/23 08:14:12;;;;;;;9.53;8.63;;;;;;;-143.37;100.00;62585.38;5085195;28;20529;-75
2022/04/23 08:16:49;;;;;;;11.47;8.00;;;;;;;-143.37;100.00;62585.38;5068514;28;20433;-75
2022/04/23 08:19:25;;;;;;;11.60;8.80;;;;;;;-143.37;100.00;62585.38;5080061;28;20438;-75
2022/04/23 08:22:02;;;;;;;10.97;9.00;;;;;;;-143.37;100.00;62585.38;5052556;28;20486;-75
2022/04/23 08:24:39;;;;;;;11.97;9.23;;;;;;;-143.37;100.00;62585.38;5073381;28;20448;-75
2022/04/23 08:27:17;;;;;;;13.40;10.60;;;;;;;-143.37;100.00;62585.38;5055222;28;20449;-75
2022/04/23 08:32:59;;;;;;;12.23;10.10;;;;;;;-143.37;100.00;62585.38;4955432;28;20446;-75
2022/04/23 08:35:38;;;;;;;14.90;10.67;;;;;;;-143.37;100.00;62585.38;5072482;28;20485;-75
2022/04/23 08:38:13;;;;;;;11.70;10.00;;;;;;;-143.37;100.00;62585.38;5070380;28;21007;-76
2022/04/23 08:40:50;;;;;;;10.97;9.20;;;;;;;-143.37;100.00;62585.38;5053574;28;20916;-75
2022/04/23 08:43:26;;;;;;;11.67;9.17;;;;;;;-143.37;100.00;62585.38;5067895;28;20441;-75
2022/04/23 08:46:03;;;;;;;12.30;8.90;;;;;;;-143.37;100.00;62585.38;5073249;28;20466;-75
2022/04/23 08:48:39;;;;;;;12.93;10.37;;;;;;;-143.37;100.00;62585.38;5085852;28;20436;-76
2022/04/23 08:51:20;;;;;;;13.87;10.53;;;;;;;-143.37;100.00;62585.38;5068209;28;20540;-76
2022/04/23 08:53:58;;;;;;;12.03;9.67;;;;;;;-143.37;100.00;62585.38;5067959;28;20807;-76
2022/04/23 08:56:36;;;;;;;10.83;9.50;;;;;;;-143.37;100.00;62585.38;5068097;28;20441;-75
2022/04/23 08:59:13;;;;;;;12.23;10.10;;;;;;;-143.37;100.00;62585.38;5064174;28;20806;-76
2022/04/23 09:01:49;;;;;;;23.73;11.60;;;;;;;-143.37;100.00;62585.38;5064196;28;20483;-76
2022/04/23 09:04:25;;;;;;;12.13;10.10;;;;;;;-143.37;100.00;62585.38;5062810;28;20532;-74
2022/04/23 09:07:00;;;;;;;12.53;9.50;;;;;;;-143.37;100.00;62585.38;5046099;28;20441;-75
2022/04/23 09:09:48;;;;;;;12.97;9.80;;;;;;;-143.37;100.00;62585.38;5064094;28;20804;-75
2022/04/23 09:12:27;;;;;;;12.83;10.40;;;;;;;-143.37;100.00;62585.38;5068701;28;20546;-75
2022/04/23 09:23:39;;;;;;;12.80;10.00;;;;;;;-143.37;100.00;62585.38;5061144;28;20434;-75
2022/04/23 09:24:07;;;;;;;12.20;10.67;;;;;;;-143.37;100.00;62585.38;5063474;28;20441;-75
2022/04/23 09:26:43;;;;;;;13.47;9.67;;;;;;;-143.37;100.00;62585.38;5077756;28;20442;-75
2022/04/23 09:29:20;;;;;;;13.90;10.40;;;;;;;-143.37;100.00;62585.38;5070955;28;20425;-75
2022/04/23 09:32:09;;;;;;;15.23;10.40;;;;;;;-143.37;100.00;62585.38;5084109;28;20853;-76
2022/04/23 09:34:47;;;;;;;13.70;10.20;;;;;;;-143.37;100.00;62585.38;5081104;28;20441;-75
2022/04/23 09:40:29;;;;;;;11.17;8.80;;;;;;;-143.37;100.00;62585.38;5084168;28;20469;-75
2022/04/23 09:43:06;;;;;;;10.77;9.67;;;;;;;-143.37;100.00;62585.38;5066331;28;20502;-75
2022/04/23 09:45:43;;;;;;;16.63;9.90;;;;;;;-143.37;100.00;62585.38;5049879;28;20505;-75
2022/04/23 09:48:19;;;;;;;16.90;9.60;;;;;;;-143.37;100.00;62585.38;5077286;28;20472;-76
2022/04/23 09:50:55;;;;;;;11.20;9.33;;;;;;;-143.37;100.00;62585.38;5065562;28;20539;-76
2022/04/23 09:53:31;;;;;;;17.67;9.90;;;;;;;-143.37;100.00;62585.38;5065222;28;20805;-76
2022/04/23 09:56:07;;;;;;;46.63;13.70;;;;;;;-143.37;100.00;62585.38;5051102;28;20455;-76
2022/04/23 09:58:42;;;;;;;14.23;9.23;;;;;;;-143.37;100.00;62585.38;5069126;28;20476;-76
2022/04/23 10:01:21;;;;;;;10.37;8.27;;;;;;;-143.37;100.00;62585.38;5059828;28;20495;-76
2022/04/23 10:03:57;;;;;;;9.83;8.13;;;;;;;-143.37;100.00;62585.38;5088315;28;20440;-76
2022/04/23 10:06:35;;;;;;;9.17;7.13;;;;;;;-143.37;100.00;62585.38;5070610;28;20440;-77
2022/04/23 10:09:13;;;;;;;9.40;6.83;;;;;;;-143.37;100.00;62585.38;5070945;28;20440;-77
2022/04/23 10:11:51;;;;;;;10.83;7.50;;;;;;;-143.37;100.00;62585.38;5089172;28;20448;-76
2022/04/23 10:14:28;;;;;;;8.40;6.60;;;;;;;-143.37;100.00;62585.38;5071402;28;20428;-74
2022/04/23 10:17:06;;;;;;;9.43;7.10;;;;;;;-143.37;100.00;62585.38;5086926;28;20431;-77
2022/04/23 10:19:42;;;;;;;9.53;7.20;;;;;;;-143.37;100.00;62585.38;5087996;28;20447;-77
2022/04/23 10:22:25;;;;;;;8.93;7.43;;;;;;;-143.37;100.00;62585.38;5106768;28;20467;-77
2022/04/23 10:25:09;;;;;;;9.80;8.20;;;;;;;-143.37;100.00;62585.38;5067493;28;20436;-76
2022/04/23 10:27:47;;;;;;;10.90;7.80;;;;;;;-143.37;100.00;62585.38;5080598;28;20453;-75
2022/04/23 10:30:23;;;;;;;8.67;7.77;;;;;;;-143.37;100.00;62585.38;5106148;28;20668;-75
2022/04/23 10:33:25;;;;;;;10.87;8.20;;;;;;;-143.37;100.00;62585.38;5069003;28;20867;-75
2022/04/23 10:36:09;;;;;;;8.80;7.47;;;;;;;-143.37;100.00;62585.38;5072908;28;20574;-76
2022/04/23 10:38:52;;;;;;;10.27;8.10;;;;;;;-143.37;100.00;62585.38;5088410;28;20472;-76
2022/04/23 10:41:27;;;;;;;10.20;8.50;;;;;;;-143.37;100.00;62585.38;5087986;28;20456;-76
2022/04/23 10:44:04;;;;;;;10.07;7.63;;;;;;;-143.37;100.00;62585.38;5086725;28;21116;-77
2022/04/23 10:46:47;;;;;;;10.47;8.73;;;;;;;-143.37;100.00;62585.38;5084752;28;20519;-76
2022/04/23 10:49:25;;;;;;;10.80;9.10;;;;;;;-143.37;100.00;62585.38;5092243;28;20845;-77
2022/04/23 10:52:00;;;;;;;8.50;7.60;;;;;;;-143.37;100.00;62585.38;5105473;28;20444;-77
2022/04/23 10:54:55;;;;;;;9.93;7.57;;;;;;;-143.37;100.00;62585.38;5081865;28;20424;-76
2022/04/23 10:57:31;;;;;;;10.90;9.33;;;;;;;-143.37;100.00;62585.38;5077601;28;20473;-76
2022/04/23 11:00:11;;;;;;;12.93;10.03;;;;;;;-143.37;100.00;62585.38;5068983;28;20938;-76
2022/04/23 11:02:47;;;;;;;10.27;8.73;;;;;;;-143.37;100.00;62585.38;5080089;28;21038;-76
2022/04/23 11:14:48;;;;;;;11.27;9.77;;;;;;;-143.37;100.00;62585.38;5087853;28;20448;-76
2022/04/23 11:17:25;;;;;;;10.70;8.63;;;;;;;-143.37;100.00;62585.38;5085379;28;20494;-76
2022/04/23 11:20:00;;;;;;;9.70;8.67;;;;;;;-143.37;100.00;62585.38;5084546;28;20427;-76
2022/04/23 11:22:38;;;;;;;10.30;8.97;;;;;;;-143.37;100.00;62585.38;5085116;28;20480;-76
2022/04/23 11:25:16;;;;;;;10.47;9.23;;;;;;;-143.37;100.00;62585.38;5084070;28;20477;-77
2022/04/23 11:27:53;;;;;;;11.57;9.47;;;;;;;-143.37;100.00;62585.38;5106080;28;20444;-76
2022/04/23 11:30:30;;;;;;;13.03;9.43;;;;;;;-143.37;100.00;62585.38;5101332;28;20479;-76
2022/04/23 11:33:14;;;;;;;10.23;9.23;;;;;;;-143.37;100.00;62585.38;5102837;28;20799;-77
2022/04/23 11:35:50;;;;;;;10.40;9.30;;;;;;;-143.37;100.00;62585.38;5072158;28;20465;-76
2022/04/23 11:38:29;;;;;;;11.60;9.30;;;;;;;-143.37;100.00;62585.38;5086382;28;20428;-76
2022/04/23 11:41:05;;;;;;;10.80;9.53;;;;;;;-143.37;100.00;62585.38;5084273;28;20489;-75
2022/04/23 11:43:41;;;;;;;10.40;9.33;;;;;;;-143.37;100.00;62585.38;5079681;28;20435;-75
2022/04/23 11:46:18;;;;;;;13.50;10.20;;;;;;;-143.37;100.00;62585.38;5090893;28;20424;-75
2022/04/23 11:48:54;;;;;;;12.70;10.00;;;;;;;-143.37;100.00;62585.38;5108176;28;20441;-77
2022/04/23 11:51:30;;;;;;;9.00;7.90;;;;;;;-143.37;100.00;62585.38;5075490;28;21631;-75
2022/04/23 11:54:06;;;;;;;11.13;8.83;;;;;;;-143.37;100.00;62585.38;5085616;28;20440;-75
2022/04/23 11:56:46;;;;;;;10.80;9.50;;;;;;;-143.37;100.00;62585.38;5086392;28;20531;-75
2022/04/23 11:59:22;;;;;;;9.60;8.50;;;;;;;-143.37;100.00;62585.38;5106742;28;20451;-75
2022/04/23 12:01:57;;;;;;;11.40;8.37;;;;;;;-143.37;100.00;62585.38;5080370;28;20475;-76
2022/04/23 12:04:42;;;;;;;10.60;8.97;;;;;;;-143.37;100.00;62585.38;5071598;28;20433;-76
2022/04/23 12:07:19;;;;;;;10.27;8.47;;;;;;;-143.37;100.00;62585.38;5068332;28;21006;-75
2022/04/23 12:09:57;;;;;;;8.73;7.83;;;;;;;-143.37;100.00;62585.38;5069693;28;20430;-76